createdAt,value
2018-11-27T00:01:35.455Z,70.10
2018-11-27T00:04:39.133Z,82.67
2018-11-27T00:07:42.860Z,81.03
2018-11-27T00:10:45.920Z,71.63
2018-11-27T00:13:48.948Z,72.83
2018-11-27T00:16:52.043Z,72.50
2018-11-27T00:19:56.124Z,76.67
2018-11-27T00:22:59.251Z,66.57
2018-11-27T00:26:02.310Z,60.60
2018-11-27T00:29:05.566Z,65.83
2018-11-27T00:32:08.595Z,65.67
2018-11-27T00:35:13.665Z,70.10
2018-11-27T00:38:16.766Z,70.20
2018-11-27T00:41:19.818Z,74.57
2018-11-27T00:44:23.044Z,73.60
2018-11-27T00:47:26.109Z,62.53
2018-11-27T00:50:29.328Z,62.67
2018-11-27T00:53:32.393Z,64.60
2018-11-27T00:56:35.418Z,70.97
2018-11-27T00:59:38.473Z,66.77
2018-11-27T01:02:41.621Z,61.87
2018-11-27T01:05:44.665Z,62.47
2018-11-27T01:08:47.781Z,59.13
2018-11-27T01:11:51.357Z,60.63
2018-11-27T01:14:54.489Z,62.77
2018-11-27T01:17:58.292Z,57.07
2018-11-27T01:21:01.384Z,54.43
2018-11-27T01:24:04.860Z,57.27
2018-11-27T01:27:07.880Z,61.67
2018-11-27T01:30:12.176Z,66.43
2018-11-27T01:33:15.261Z,59.87
2018-11-27T01:36:18.398Z,65.40
2018-11-27T01:39:21.446Z,57.13
2018-11-27T01:42:24.548Z,50.47
2018-11-27T01:45:27.709Z,51.13
2018-11-27T01:48:30.734Z,58.47
2018-11-27T01:51:33.817Z,66.93
2018-11-27T01:54:36.940Z,66.60
2018-11-27T01:57:40.053Z,65.37
2018-11-27T02:00:43.129Z,75.37
2018-11-27T02:03:46.185Z,67.53
2018-11-27T02:06:49.213Z,60.53
2018-11-27T02:09:52.268Z,60.57
2018-11-27T02:13:00.978Z,57.13
2018-11-27T02:15:59.100Z,58.93
2018-11-27T02:19:02.186Z,52.07
2018-11-27T02:22:05.538Z,53.37
2018-11-27T02:25:42.170Z,81.30
2018-11-27T02:28:45.295Z,62.17
2018-11-27T02:31:48.354Z,64.70
2018-11-27T02:34:51.646Z,62.37
2018-11-27T02:37:56.763Z,61.17
2018-11-27T02:40:59.936Z,69.63
2018-11-27T02:44:02.982Z,58.73
2018-11-27T02:47:06.285Z,61.93
2018-11-27T02:50:13.394Z,71.27
2018-11-27T02:53:16.454Z,63.60
2018-11-27T02:56:19.479Z,67.20
2018-11-27T02:59:22.538Z,64.27
2018-11-27T03:02:25.661Z,65.73
2018-11-27T03:05:37.157Z,65.13
2018-11-27T03:08:40.314Z,62.90
2018-11-27T03:11:43.444Z,62.33
2018-11-27T03:14:46.499Z,81.53
2018-11-27T03:17:49.523Z,59.70
2018-11-27T03:20:52.742Z,64.77
2018-11-27T03:23:55.778Z,57.93
2018-11-27T03:26:59.002Z,63.27
2018-11-27T03:30:02.062Z,66.23
2018-11-27T03:33:05.224Z,66.23
2018-11-27T03:36:08.350Z,56.37
2018-11-27T03:39:11.463Z,55.63
2018-11-27T03:42:14.529Z,57.70
2018-11-27T03:45:18.132Z,67.77
2018-11-27T03:48:21.157Z,61.20
2018-11-27T03:51:24.221Z,61.57
2018-11-27T03:54:27.246Z,53.40
2018-11-27T03:57:30.406Z,58.77
2018-11-27T04:00:33.394Z,76.17
2018-11-27T04:03:36.416Z,66.33
2018-11-27T04:06:39.453Z,65.70
2018-11-27T04:09:42.640Z,60.73
2018-11-27T04:12:45.661Z,53.43
2018-11-27T04:15:48.685Z,61.67
2018-11-27T04:18:51.757Z,59.07
2018-11-27T04:21:54.873Z,52.43
2018-11-27T04:24:57.930Z,66.10
2018-11-27T04:28:00.958Z,62.43
2018-11-27T04:31:04.012Z,64.93
2018-11-27T04:34:07.139Z,60.37
2018-11-27T04:37:10.174Z,70.50
2018-11-27T04:40:15.181Z,86.27
2018-11-27T04:43:18.261Z,81.07
2018-11-27T04:46:21.319Z,90.63
2018-11-27T04:49:24.481Z,74.07
2018-11-27T04:52:27.509Z,78.53
2018-11-27T04:55:30.529Z,89.13
2018-11-27T04:58:33.843Z,77.57
2018-11-27T05:01:36.981Z,94.40
2018-11-27T05:04:40.129Z,104.80
2018-11-27T05:07:43.187Z,93.43
2018-11-27T05:10:46.277Z,86.97
2018-11-27T05:13:49.524Z,73.47
2018-11-27T05:16:52.861Z,83.70
2018-11-27T05:19:56.193Z,75.27
2018-11-27T05:22:59.248Z,75.73
2018-11-27T05:26:02.282Z,77.60
2018-11-27T05:29:05.844Z,70.67
2018-11-27T05:32:08.880Z,63.20
2018-11-27T05:35:14.113Z,65.60
2018-11-27T05:38:17.309Z,66.47
2018-11-27T05:41:20.369Z,69.60
2018-11-27T05:44:24.066Z,63.17
2018-11-27T05:47:27.066Z,71.53
2018-11-27T05:50:30.193Z,80.10
2018-11-27T05:53:33.250Z,77.30
2018-11-27T05:56:36.377Z,69.33
2018-11-27T05:59:39.432Z,78.30
2018-11-27T06:02:42.496Z,71.00
2018-11-27T06:05:45.723Z,70.67
2018-11-27T06:08:48.748Z,65.33
2018-11-27T06:11:51.804Z,72.23
2018-11-27T06:14:54.932Z,72.37
2018-11-27T06:17:59.351Z,65.17
2018-11-27T06:21:02.445Z,72.07
2018-11-27T06:24:06.017Z,69.30
2018-11-27T06:27:09.145Z,65.43
2018-11-27T06:30:16.509Z,64.83
2018-11-27T06:33:19.646Z,69.73
2018-11-27T06:36:22.693Z,65.07
2018-11-27T06:39:26.022Z,62.97
2018-11-27T06:42:29.089Z,70.77
2018-11-27T06:45:32.152Z,66.27
2018-11-27T06:48:35.165Z,67.27
2018-11-27T06:51:38.294Z,67.13
2018-11-27T06:54:41.453Z,62.93
2018-11-27T06:57:44.579Z,65.10
2018-11-27T07:00:47.632Z,72.03
2018-11-27T07:03:50.964Z,69.17
2018-11-27T07:06:54.109Z,72.70
2018-11-27T07:09:57.122Z,67.17
2018-11-27T07:13:05.717Z,66.37
2018-11-27T07:16:08.729Z,54.47
2018-11-27T07:19:11.721Z,67.67
2018-11-27T07:22:14.708Z,57.17
2018-11-27T07:25:17.705Z,57.97
2018-11-27T07:28:20.693Z,61.47
2018-11-27T07:31:23.689Z,66.10
2018-11-27T07:34:26.674Z,57.80
2018-11-27T07:37:29.665Z,58.10
2018-11-27T07:40:32.753Z,66.53
2018-11-27T07:43:35.745Z,67.20
2018-11-27T07:46:38.736Z,63.00
2018-11-27T07:49:41.726Z,60.83
2018-11-27T07:52:44.925Z,61.80
2018-11-27T07:55:47.921Z,59.83
2018-11-27T07:58:51.001Z,58.73
2018-11-27T08:01:53.997Z,64.47
2018-11-27T08:04:56.985Z,56.67
2018-11-27T08:07:59.977Z,62.03
2018-11-27T08:11:02.969Z,65.23
2018-11-27T08:14:06.061Z,55.57
2018-11-27T08:17:09.103Z,57.73
2018-11-27T08:20:16.500Z,59.63
2018-11-27T08:23:19.490Z,53.77
2018-11-27T08:26:22.477Z,53.77
2018-11-27T08:29:25.465Z,54.57
2018-11-27T08:32:28.941Z,57.73
2018-11-27T08:35:31.961Z,52.73
2018-11-27T08:38:34.949Z,54.50
2018-11-27T08:41:40.525Z,62.57
2018-11-27T08:44:41.649Z,53.73
2018-11-27T08:47:45.125Z,51.27
2018-11-27T08:50:48.140Z,49.83
2018-11-27T08:53:51.128Z,52.57
2018-11-27T08:56:54.121Z,52.00
2018-11-27T08:59:57.126Z,48.87
2018-11-27T09:03:00.204Z,53.40
2018-11-27T09:06:03.198Z,54.97
2018-11-27T09:09:09.694Z,53.70
2018-11-27T09:12:12.757Z,55.20
2018-11-27T09:15:16.915Z,48.40
2018-11-27T09:18:22.192Z,57.07
2018-11-27T09:21:25.189Z,61.37
2018-11-27T09:24:28.224Z,48.00
2018-11-27T09:27:31.294Z,49.87
2018-11-27T09:30:34.282Z,55.27
2018-11-27T09:33:43.929Z,55.47
2018-11-27T09:36:46.925Z,56.90
2018-11-27T09:39:49.989Z,57.27
2018-11-27T09:42:53.003Z,54.67
2018-11-27T09:45:55.997Z,55.70
2018-11-27T09:48:58.985Z,49.33
2018-11-27T09:52:01.982Z,58.67
2018-11-27T09:55:13.157Z,45.83
2018-11-27T09:58:16.189Z,46.90
2018-11-27T10:01:19.237Z,51.10
2018-11-27T10:04:22.233Z,45.63
2018-11-27T10:07:25.223Z,53.37
2018-11-27T10:10:28.221Z,57.93
2018-11-27T10:13:31.306Z,46.00
2018-11-27T10:16:34.293Z,49.57
2018-11-27T10:19:37.287Z,44.23
2018-11-27T10:22:40.461Z,47.07
2018-11-27T10:25:43.473Z,53.67
2018-11-27T10:28:46.473Z,50.70
2018-11-27T10:31:49.553Z,46.37
2018-11-27T10:34:52.549Z,50.20
2018-11-27T10:37:55.645Z,44.60
2018-11-27T10:40:58.734Z,56.17
2018-11-27T10:44:01.925Z,37.40
2018-11-27T10:47:05.025Z,42.10
2018-11-27T10:50:15.897Z,47.73
2018-11-27T10:53:18.989Z,40.13
2018-11-27T10:56:21.977Z,44.13
2018-11-27T10:59:24.945Z,45.47
2018-11-27T11:02:34.544Z,39.20
2018-11-27T11:05:37.633Z,44.67
2018-11-27T11:08:40.789Z,40.83
2018-11-27T11:11:43.792Z,44.57
2018-11-27T11:14:46.777Z,41.60
2018-11-27T11:17:49.773Z,47.57
2018-11-27T11:20:52.757Z,43.07
2018-11-27T11:23:55.729Z,42.27
2018-11-27T11:26:58.737Z,47.90
2018-11-27T11:30:01.731Z,43.47
2018-11-27T11:33:05.505Z,46.03
2018-11-27T11:36:08.633Z,48.67
2018-11-27T11:39:11.620Z,53.60
2018-11-27T11:42:14.613Z,48.13
2018-11-27T11:45:17.602Z,50.93
2018-11-27T11:48:20.592Z,46.10
2018-11-27T11:51:23.717Z,54.40
2018-11-27T11:54:26.781Z,52.17
2018-11-27T11:57:29.841Z,51.90
2018-11-27T12:00:36.046Z,53.97
2018-11-27T12:03:39.174Z,48.43
2018-11-27T12:06:42.781Z,50.97
2018-11-27T12:09:45.913Z,51.97
2018-11-27T12:12:48.917Z,51.57
2018-11-27T12:15:52.248Z,55.90
2018-11-27T12:18:55.309Z,52.93
2018-11-27T12:21:58.368Z,54.13
2018-11-27T12:25:01.395Z,50.67
2018-11-27T12:28:04.424Z,57.43
2018-11-27T12:31:07.474Z,51.50
2018-11-27T12:34:10.625Z,52.40
2018-11-27T12:37:13.657Z,48.03
2018-11-27T12:40:25.376Z,47.57
2018-11-27T12:43:29.037Z,47.80
2018-11-27T12:46:32.149Z,53.37
2018-11-27T12:49:35.149Z,53.93
2018-11-27T12:52:38.266Z,58.40
2018-11-27T12:55:42.661Z,48.43
2018-11-27T12:58:46.609Z,51.40
2018-11-27T13:01:49.665Z,49.67
2018-11-27T13:04:52.898Z,47.53
2018-11-27T13:08:00.457Z,47.90
2018-11-27T13:11:03.688Z,49.87
2018-11-27T13:14:07.143Z,43.77
2018-11-27T13:17:10.216Z,44.80
2018-11-27T13:20:15.286Z,50.90
2018-11-27T13:23:18.314Z,55.97
2018-11-27T13:26:21.381Z,45.50
2018-11-27T13:29:24.494Z,47.07
2018-11-27T13:32:27.557Z,51.53
2018-11-27T13:35:30.677Z,53.87
2018-11-27T13:38:34.085Z,50.87
2018-11-27T13:41:37.140Z,50.17
2018-11-27T13:44:40.441Z,45.93
2018-11-27T13:47:43.882Z,49.83
2018-11-27T13:50:47.475Z,46.23
2018-11-27T13:53:50.540Z,47.43
2018-11-27T13:56:53.561Z,58.60
2018-11-27T13:59:56.637Z,53.67
2018-11-27T14:02:59.753Z,50.73
2018-11-27T14:06:02.805Z,49.63
2018-11-27T14:09:08.502Z,54.20
2018-11-27T14:12:11.548Z,48.50
2018-11-27T14:15:21.447Z,57.23
2018-11-27T14:18:26.437Z,52.10
2018-11-27T14:21:29.497Z,57.93
2018-11-27T14:24:32.633Z,52.57
2018-11-27T14:27:35.673Z,49.53
2018-11-27T14:30:38.903Z,49.00
2018-11-27T14:33:42.065Z,45.87
2018-11-27T14:36:45.189Z,55.90
2018-11-27T14:39:48.245Z,55.90
2018-11-27T14:42:51.604Z,54.20
2018-11-27T14:45:54.669Z,51.40
2018-11-27T14:48:57.746Z,58.23
2018-11-27T14:52:00.853Z,53.33
2018-11-27T14:55:04.433Z,52.73
2018-11-27T14:58:07.560Z,55.10
2018-11-27T15:01:11.672Z,57.97
2018-11-27T15:04:15.753Z,57.47
2018-11-27T15:07:18.883Z,58.60
2018-11-27T15:10:22.042Z,51.53
2018-11-27T15:13:25.172Z,55.43
2018-11-27T15:16:28.225Z,59.77
2018-11-27T15:19:32.375Z,52.03
2018-11-27T15:22:35.416Z,54.83
2018-11-27T15:25:40.508Z,52.37
2018-11-27T15:28:43.681Z,54.50
2018-11-27T15:31:46.765Z,53.17
2018-11-27T15:34:51.225Z,57.77
2018-11-27T15:37:54.285Z,58.23
2018-11-27T15:40:57.401Z,56.17
2018-11-27T15:44:00.471Z,58.47
2018-11-27T15:47:03.565Z,45.43
2018-11-27T15:50:08.285Z,55.70
2018-11-27T15:53:11.516Z,64.40
2018-11-27T15:56:14.616Z,63.90
2018-11-27T16:03:25.954Z,66.03
2018-11-27T16:06:28.993Z,61.57
2018-11-27T16:09:32.192Z,60.20
2018-11-27T16:12:39.533Z,60.73
2018-11-27T16:15:43.485Z,56.50
2018-11-27T16:18:46.577Z,53.97
2018-11-27T16:21:49.670Z,62.93
2018-11-27T16:24:52.745Z,53.93
2018-11-27T16:27:55.753Z,60.20
2018-11-27T16:30:58.850Z,55.13
2018-11-27T16:34:01.941Z,55.20
2018-11-27T16:37:25.510Z,58.60
2018-11-27T16:40:35.668Z,54.90
2018-11-27T16:43:38.765Z,58.07
2018-11-27T16:46:41.853Z,56.27
2018-11-27T16:49:44.946Z,58.83
2018-11-27T16:52:48.444Z,54.23
2018-11-27T16:55:51.541Z,52.90
2018-11-27T16:58:54.673Z,55.13
2018-11-27T17:02:03.545Z,55.17
2018-11-27T17:05:07.514Z,58.23
2018-11-27T17:08:10.597Z,55.33
2018-11-27T17:11:13.762Z,50.23
2018-11-27T17:14:17.226Z,49.87
2018-11-27T17:17:20.254Z,48.53
2018-11-27T17:20:28.437Z,56.80
2018-11-27T17:23:31.491Z,49.17
2018-11-27T17:26:34.549Z,52.03
2018-11-27T17:29:37.678Z,44.23
2018-11-27T17:32:41.785Z,48.47
2018-11-27T17:35:44.925Z,45.93
2018-11-27T17:38:48.981Z,41.60
2018-11-27T17:41:52.061Z,49.77
2018-11-27T17:44:55.185Z,47.20
2018-11-27T17:47:58.244Z,49.23
2018-11-27T17:51:01.273Z,52.57
2018-11-27T17:54:04.372Z,51.53
2018-11-27T17:57:07.469Z,47.73
2018-11-27T18:00:18.143Z,54.57
2018-11-27T18:03:21.220Z,46.13
2018-11-27T18:06:25.256Z,44.30
2018-11-27T18:09:28.324Z,44.40
2018-11-27T18:12:33.732Z,44.80
2018-11-27T18:15:35.326Z,40.67
2018-11-27T18:18:38.393Z,40.47
2018-11-27T18:21:41.617Z,40.70
2018-11-27T18:24:44.678Z,37.87
2018-11-27T18:27:48.629Z,43.80
2018-11-27T18:30:51.825Z,42.10
2018-11-27T18:33:55.106Z,36.30
2018-11-27T18:36:58.013Z,32.53
2018-11-27T18:40:01.062Z,40.87
2018-11-27T18:43:04.414Z,39.37
2018-11-27T18:46:07.452Z,35.13
2018-11-27T18:49:10.481Z,35.27
2018-11-27T18:52:13.538Z,38.00
2018-11-27T18:55:16.974Z,39.03
2018-11-27T18:58:20.061Z,38.57
2018-11-27T19:01:23.121Z,43.10
2018-11-27T19:04:26.245Z,44.43
2018-11-27T19:07:29.309Z,45.90
2018-11-27T19:10:33.136Z,42.10
2018-11-27T19:13:36.241Z,42.53
2018-11-27T19:16:39.305Z,46.80
2018-11-27T19:19:42.529Z,48.17
2018-11-27T19:22:45.589Z,53.10
2018-11-27T19:25:48.713Z,44.13
2018-11-27T19:28:51.813Z,48.23
2018-11-27T19:31:56.056Z,60.43
2018-11-27T19:34:59.118Z,54.13
2018-11-27T19:38:02.181Z,49.17
2018-11-27T19:41:05.544Z,53.77
2018-11-27T19:44:08.648Z,54.43
2018-11-27T19:47:48.211Z,51.27
2018-11-27T19:50:53.361Z,38.63
2018-11-27T19:53:56.457Z,39.83
2018-11-27T19:57:01.492Z,41.53
2018-11-27T20:00:26.840Z,40.23
2018-11-27T20:03:30.827Z,46.60
2018-11-27T20:06:33.915Z,44.47
2018-11-27T20:09:37.008Z,53.13
2018-11-27T20:12:40.730Z,48.37
2018-11-27T20:15:43.805Z,49.83
2018-11-27T20:18:46.900Z,62.10
2018-11-27T20:21:50.096Z,55.33
2018-11-27T20:24:53.189Z,52.53
2018-11-27T20:27:56.276Z,57.47
2018-11-27T20:30:59.368Z,50.80
2018-11-27T20:34:02.465Z,46.10
2018-11-27T20:37:05.638Z,42.53
2018-11-27T20:40:10.885Z,49.17
2018-11-27T20:43:14.483Z,44.20
2018-11-27T20:46:17.493Z,47.80
2018-11-27T20:49:20.489Z,42.97
2018-11-27T20:52:23.581Z,42.67
2018-11-27T20:55:27.596Z,47.77
2018-11-27T20:58:30.673Z,43.23
2018-11-27T21:01:33.678Z,44.27
2018-11-27T21:04:36.753Z,50.83
2018-11-27T21:07:39.749Z,42.63
2018-11-27T21:10:43.861Z,45.13
2018-11-27T21:13:46.845Z,47.67
2018-11-27T21:16:49.837Z,44.90
2018-11-27T21:19:52.806Z,37.23
2018-11-27T21:22:55.821Z,40.33
2018-11-27T21:26:05.091Z,46.87
2018-11-27T21:29:08.149Z,43.23
2018-11-27T21:32:11.137Z,50.70
2018-11-27T21:35:15.105Z,48.87
2018-11-27T21:38:18.147Z,45.57
2018-11-27T21:41:21.133Z,47.77
2018-11-27T21:44:25.025Z,39.03
2018-11-27T21:47:28.057Z,41.90
2018-11-27T21:50:36.637Z,42.40
2018-11-27T21:53:39.653Z,42.70
2018-11-27T21:56:42.803Z,42.13
2018-11-27T21:59:45.941Z,41.70
2018-11-27T22:02:48.925Z,33.30
2018-11-27T22:05:51.913Z,34.07
2018-11-27T22:08:54.905Z,41.87
2018-11-27T22:11:58.277Z,42.13
2018-11-27T22:15:01.913Z,42.13
2018-11-27T22:18:08.455Z,39.73
2018-11-27T22:21:11.497Z,42.40
2018-11-27T22:24:15.188Z,38.40
2018-11-27T22:27:18.276Z,37.57
2018-11-27T22:30:22.278Z,41.80
2018-11-27T22:33:26.049Z,43.07
2018-11-27T22:36:29.328Z,40.93
2018-11-27T22:39:32.390Z,42.10
2018-11-27T22:42:35.412Z,42.00
2018-11-27T22:45:39.499Z,43.13
2018-11-27T22:48:42.617Z,39.13
2018-11-27T22:51:45.681Z,41.97
2018-11-27T22:54:49.461Z,33.60
2018-11-27T22:57:52.481Z,32.60
2018-11-27T23:00:55.513Z,34.23
2018-11-27T23:03:58.665Z,39.67
2018-11-27T23:07:02.310Z,34.10
2018-11-27T23:10:06.305Z,40.90
2018-11-27T23:13:09.822Z,40.83
2018-11-27T23:16:12.884Z,39.50
2018-11-27T23:19:16.005Z,45.00
2018-11-27T23:22:19.173Z,38.80
2018-11-27T23:25:22.185Z,38.87
2018-11-27T23:28:25.281Z,37.97
2018-11-27T23:31:28.318Z,39.97
2018-11-27T23:34:31.577Z,34.93
2018-11-27T23:37:34.733Z,36.33
2018-11-27T23:40:37.757Z,39.53
2018-11-27T23:43:40.823Z,31.10
2018-11-27T23:46:43.898Z,35.67
2018-11-27T23:49:46.898Z,38.70
2018-11-27T23:52:50.125Z,39.27
2018-11-27T23:55:53.184Z,35.67
2018-11-27T23:58:56.210Z,37.83
